createdAt,value
2022-09-26T00:00:11.723Z,10.25
2022-09-26T00:05:13.439Z,9.77
2022-09-26T00:10:15.161Z,9.85
2022-09-26T00:15:16.830Z,10.13
2022-09-26T00:20:18.607Z,9.85
2022-09-26T00:25:20.299Z,9.93
2022-09-26T00:30:22.055Z,9.60
2022-09-26T00:35:23.680Z,8.90
2022-09-26T00:40:27.903Z,9.10
2022-09-26T00:45:31.231Z,9.75
2022-09-26T00:50:36.365Z,9.40
2022-09-26T00:55:42.976Z,8.82
2022-09-26T01:00:46.842Z,9.50
2022-09-26T01:05:49.069Z,9.27
2022-09-26T01:10:51.088Z,9.40
2022-09-26T01:15:52.779Z,9.07
2022-09-26T01:21:29.444Z,9.63
2022-09-26T01:26:56.130Z,10.48
2022-09-26T01:32:39.969Z,9.23
2022-09-26T01:38:05.677Z,9.73
2022-09-26T01:43:25.598Z,10.02
2022-09-26T01:48:58.814Z,9.93
2022-09-26T01:54:12.587Z,9.90
2022-09-26T01:59:20.357Z,9.23
2022-09-26T02:04:34.835Z,10.20
2022-09-26T02:10:02.589Z,9.00
2022-09-26T02:15:08.712Z,9.07
2022-09-26T02:20:24.335Z,11.18
2022-09-26T02:25:28.264Z,9.95
2022-09-26T02:30:30.130Z,10.05
2022-09-26T02:35:50.314Z,10.05
2022-09-26T02:41:29.549Z,10.13
2022-09-26T02:46:45.995Z,10.35
2022-09-26T02:52:12.470Z,10.55
2022-09-26T02:57:40.444Z,10.88
2022-09-26T03:03:07.900Z,11.63
2022-09-26T03:08:14.689Z,11.82
2022-09-26T03:13:18.441Z,10.88
2022-09-26T03:18:25.615Z,10.60
2022-09-26T03:23:28.532Z,10.32
2022-09-26T03:28:35.361Z,10.93
2022-09-26T03:33:39.354Z,9.55
2022-09-26T03:38:41.066Z,9.90
2022-09-26T03:43:43.687Z,9.95
2022-09-26T03:48:45.389Z,9.40
2022-09-26T03:53:47.143Z,10.35
2022-09-26T03:58:49.243Z,9.35
2022-09-26T04:03:51.402Z,9.80
2022-09-26T04:08:53.527Z,9.40
2022-09-26T04:13:55.143Z,9.38
2022-09-26T04:18:57.625Z,9.32
2022-09-26T04:23:59.314Z,8.88
2022-09-26T04:29:00.972Z,8.63
2022-09-26T04:34:05.042Z,9.57
2022-09-26T04:39:06.729Z,9.98
2022-09-26T04:44:10.654Z,9.00
2022-09-26T04:49:12.451Z,9.23
2022-09-26T04:54:16.159Z,9.23
2022-09-26T04:59:17.828Z,12.00
2022-09-26T05:04:22.791Z,11.18
2022-09-26T05:09:27.004Z,10.88
2022-09-26T05:14:28.642Z,9.68
2022-09-26T05:19:30.405Z,10.65
2022-09-26T05:24:50.709Z,10.02
2022-09-26T05:29:56.876Z,9.70
2022-09-26T05:34:58.534Z,10.07
2022-09-26T05:40:18.865Z,12.00
2022-09-26T05:45:20.737Z,9.85
2022-09-26T05:50:24.583Z,9.15
2022-09-26T05:55:27.467Z,9.05
2022-09-26T06:00:29.362Z,8.63
2022-09-26T06:05:33.737Z,9.18
2022-09-26T06:10:37.098Z,9.52
2022-09-26T06:15:39.941Z,8.95
2022-09-26T06:20:41.683Z,7.75
2022-09-26T06:25:43.405Z,8.07
2022-09-26T06:30:45.102Z,7.05
2022-09-26T06:35:46.984Z,6.65
2022-09-26T06:40:51.082Z,6.10
2022-09-26T06:45:53.261Z,5.60
2022-09-26T06:50:58.541Z,4.75
2022-09-26T06:56:00.610Z,4.88
2022-09-26T07:01:02.492Z,4.90
2022-09-26T07:06:04.995Z,4.78
2022-09-26T07:11:31.266Z,5.40
2022-09-26T07:16:29.130Z,4.60
2022-09-26T07:21:30.843Z,4.28
2022-09-26T07:26:32.565Z,4.10
2022-09-26T07:31:34.327Z,4.20
2022-09-26T07:36:36.190Z,3.45
2022-09-26T07:41:37.853Z,3.50
2022-09-26T07:46:58.016Z,3.58
2022-09-26T07:52:00.721Z,3.88
2022-09-26T07:57:04.802Z,3.95
2022-09-26T08:02:06.895Z,3.38
2022-09-26T08:07:09.821Z,2.95
2022-09-26T08:12:11.500Z,2.50
2022-09-26T08:17:14.439Z,2.45
2022-09-26T08:22:16.324Z,2.38
2022-09-26T08:27:18.735Z,2.70
2022-09-26T08:32:20.786Z,3.13
2022-09-26T08:37:27.752Z,2.00
2022-09-26T08:42:52.816Z,2.88
2022-09-26T08:48:14.678Z,1.50
2022-09-26T08:53:24.824Z,1.60
2022-09-26T08:58:38.976Z,1.45
2022-09-26T09:03:56.004Z,1.70
2022-09-26T09:08:58.073Z,1.10
2022-09-26T09:14:10.490Z,1.33
2022-09-26T09:19:40.111Z,1.40
2022-09-26T09:25:05.673Z,1.20
2022-09-26T09:30:22.504Z,1.33
2022-09-26T09:35:35.493Z,1.73
2022-09-26T09:40:50.760Z,1.70
2022-09-26T09:45:57.566Z,1.60
2022-09-26T09:51:33.206Z,1.70
2022-09-26T09:57:14.583Z,2.22
2022-09-26T10:02:37.935Z,1.80
2022-09-26T10:07:39.613Z,2.10
2022-09-26T10:12:43.586Z,1.70
2022-09-26T10:18:23.404Z,2.10
2022-09-26T10:23:36.693Z,2.20
2022-09-26T10:28:55.574Z,1.60
2022-09-26T10:34:02.933Z,1.60
2022-09-26T10:39:34.528Z,1.80
2022-09-26T10:44:36.644Z,1.35
2022-09-26T10:49:47.658Z,1.40
2022-09-26T10:55:03.848Z,1.52
2022-09-26T11:00:08.556Z,1.75
2022-09-26T11:05:28.841Z,1.30
2022-09-26T11:10:36.229Z,2.17
2022-09-26T11:15:40.043Z,1.50
2022-09-26T11:20:51.651Z,2.42
2022-09-26T11:26:08.424Z,1.30
2022-09-26T11:31:28.304Z,1.70
2022-09-26T11:42:24.802Z,1.55
2022-09-26T11:47:56.065Z,1.30
2022-09-26T11:53:15.867Z,1.40
2022-09-26T11:58:23.303Z,1.40
2022-09-26T12:03:37.751Z,1.10
2022-09-26T12:09:15.005Z,1.10
2022-09-26T12:14:36.975Z,1.50
2022-09-26T12:20:03.316Z,1.40
2022-09-26T12:25:35.970Z,1.20
2022-09-26T12:30:59.677Z,1.67
2022-09-26T12:36:40.406Z,1.40
2022-09-26T12:42:02.367Z,1.40
2022-09-26T12:47:38.745Z,1.20
2022-09-26T12:53:05.322Z,1.15
2022-09-26T12:58:29.556Z,1.08
2022-09-26T13:03:54.530Z,1.17
2022-09-26T13:09:25.263Z,1.30
2022-09-26T13:14:31.678Z,1.30
2022-09-26T13:19:38.277Z,1.13
2022-09-26T13:24:50.138Z,1.33
2022-09-26T13:30:02.115Z,1.52
2022-09-26T13:35:13.365Z,1.23
2022-09-26T13:40:41.079Z,1.65
2022-09-26T13:46:00.199Z,1.40
2022-09-26T13:51:18.290Z,1.58
2022-09-26T13:56:50.480Z,1.30
2022-09-26T14:02:18.407Z,1.60
2022-09-26T14:07:44.444Z,1.40
2022-09-26T14:13:03.328Z,1.33
2022-09-26T14:18:28.068Z,1.55
2022-09-26T14:23:42.542Z,1.40
2022-09-26T14:28:53.177Z,1.30
2022-09-26T14:34:06.362Z,1.25
2022-09-26T14:39:32.060Z,2.63
2022-09-26T14:44:37.203Z,1.50
2022-09-26T14:49:39.623Z,1.10
2022-09-26T14:54:41.510Z,1.30
2022-09-26T14:59:43.595Z,1.25
2022-09-26T15:04:49.655Z,1.35
2022-09-26T15:10:20.348Z,1.20
2022-09-26T15:15:56.442Z,1.30
2022-09-26T15:21:04.863Z,1.30
2022-09-26T15:26:06.867Z,1.25
2022-09-26T15:31:20.352Z,1.10
2022-09-26T15:36:22.487Z,1.15
2022-09-26T15:41:43.130Z,1.33
2022-09-26T15:46:49.369Z,1.40
2022-09-26T15:51:54.486Z,1.38
2022-09-26T15:57:01.688Z,1.23
2022-09-26T16:02:03.786Z,1.70
2022-09-26T16:07:17.583Z,1.40
2022-09-26T16:12:22.618Z,1.20
2022-09-26T16:17:36.283Z,1.50
2022-09-26T16:22:45.543Z,1.30
2022-09-26T16:27:52.693Z,1.40
2022-09-26T16:33:04.837Z,1.25
2022-09-26T16:38:24.515Z,1.52
2022-09-26T16:43:31.623Z,1.60
2022-09-26T16:48:42.161Z,1.90
2022-09-26T16:53:46.021Z,1.25
2022-09-26T16:58:51.641Z,1.25
2022-09-26T17:03:55.080Z,1.13
2022-09-26T17:09:07.625Z,1.30
2022-09-26T17:14:13.255Z,1.10
2022-09-26T17:19:17.358Z,1.00
2022-09-26T17:24:23.922Z,1.15
2022-09-26T17:29:29.984Z,1.10
2022-09-26T17:34:31.724Z,1.15
2022-09-26T17:39:33.531Z,1.08
2022-09-26T17:44:36.772Z,1.10
2022-09-26T17:49:39.531Z,1.20
2022-09-26T17:54:42.799Z,1.10
2022-09-26T17:59:44.696Z,1.25
2022-09-26T18:04:46.566Z,1.40
2022-09-26T18:09:50.164Z,1.27
2022-09-26T18:14:52.019Z,2.00
2022-09-26T18:19:54.212Z,1.50
2022-09-26T18:25:07.008Z,1.50
2022-09-26T18:30:14.705Z,1.20
2022-09-26T18:35:24.121Z,1.30
2022-09-26T18:40:28.642Z,1.30
2022-09-26T18:45:35.911Z,1.60
2022-09-26T18:50:39.635Z,1.40
2022-09-26T18:55:59.965Z,1.75
2022-09-26T19:01:12.223Z,1.40
2022-09-26T19:06:18.845Z,1.42
2022-09-26T19:11:22.817Z,1.40
2022-09-26T19:16:25.104Z,1.50
2022-09-26T19:21:46.717Z,1.63
2022-09-26T19:26:54.687Z,1.42
2022-09-26T19:31:56.832Z,1.40
2022-09-26T19:36:58.679Z,1.60
2022-09-26T19:42:02.252Z,1.48
2022-09-26T19:47:04.657Z,1.70
2022-09-26T19:52:13.354Z,1.50
2022-09-26T19:57:22.388Z,1.70
2022-09-26T20:02:31.628Z,1.80
2022-09-26T20:07:33.670Z,1.65
2022-09-26T20:12:35.345Z,1.85
2022-09-26T20:17:37.446Z,1.70
2022-09-26T20:22:40.198Z,1.45
2022-09-26T20:27:42.176Z,1.60
2022-09-26T20:32:43.903Z,1.55
2022-09-26T20:37:45.627Z,1.30
2022-09-26T20:42:50.174Z,1.48
2022-09-26T20:47:51.883Z,1.50
2022-09-26T20:52:53.526Z,1.30
2022-09-26T20:57:55.595Z,1.45
2022-09-26T21:02:57.375Z,1.10
2022-09-26T21:08:00.296Z,1.60
2022-09-26T21:13:02.296Z,1.30
2022-09-26T21:18:04.261Z,1.20
2022-09-26T21:23:09.179Z,1.10
2022-09-26T21:28:23.318Z,1.10
2022-09-26T21:33:25.142Z,1.00
2022-09-26T21:38:27.290Z,1.00
2022-09-26T21:43:32.782Z,1.13
2022-09-26T21:48:34.610Z,1.27
2022-09-26T21:53:41.293Z,1.20
2022-09-26T21:58:44.066Z,1.42
2022-09-26T22:03:45.733Z,1.02
2022-09-26T22:08:47.394Z,1.20
2022-09-26T22:13:49.058Z,1.70
2022-09-26T22:18:50.752Z,1.30
2022-09-26T22:23:53.032Z,1.38
2022-09-26T22:28:54.775Z,1.40
2022-09-26T22:33:57.777Z,1.50
2022-09-26T22:38:59.714Z,1.50
2022-09-26T22:44:01.802Z,1.30
2022-09-26T22:49:03.535Z,1.42
2022-09-26T22:54:05.311Z,1.00
2022-09-26T22:59:06.968Z,1.48
2022-09-26T23:04:08.872Z,1.20
2022-09-26T23:09:10.602Z,1.15
2022-09-26T23:14:12.297Z,1.30
2022-09-26T23:19:13.989Z,1.10
2022-09-26T23:24:15.979Z,1.20
2022-09-26T23:29:17.664Z,1.27
2022-09-26T23:34:19.362Z,1.15
2022-09-26T23:39:21.485Z,1.10
2022-09-26T23:44:23.210Z,1.30
2022-09-26T23:49:24.858Z,1.23
2022-09-26T23:54:26.546Z,1.30
2022-09-26T23:59:28.398Z,1.00
